sensor_id;sensor_type;location;lat;lon;timestamp;P1;durP1;ratioP1;P2;durP2;ratioP2
20014;SDS011;61787;42.022;23.078;2024-01-11T00:00:50;16.00;;;9.52;;
20014;SDS011;61787;42.022;23.078;2024-01-11T00:01:52;17.23;;;9.38;;
20014;SDS011;61787;42.022;23.078;2024-01-11T00:02:53;16.52;;;9.15;;
20014;SDS011;61787;42.022;23.078;2024-01-11T00:03:55;18.85;;;9.05;;
20014;SDS011;61787;42.022;23.078;2024-01-11T00:04:57;17.42;;;10.07;;
20014;SDS011;61787;42.022;23.078;2024-01-11T00:05:58;18.25;;;10.00;;
20014;SDS011;61787;42.022;23.078;2024-01-11T00:07:02;17.38;;;10.82;;
20014;SDS011;61787;42.022;23.078;2024-01-11T00:08:04;21.58;;;11.32;;
20014;SDS011;61787;42.022;23.078;2024-01-11T00:09:06;21.75;;;10.80;;
20014;SDS011;61787;42.022;23.078;2024-01-11T00:10:07;17.67;;;10.40;;
20014;SDS011;61787;42.022;23.078;2024-01-11T00:11:10;19.00;;;10.52;;
20014;SDS011;61787;42.022;23.078;2024-01-11T00:12:11;22.15;;;10.52;;
20014;SDS011;61787;42.022;23.078;2024-01-11T00:13:13;26.80;;;12.63;;
20014;SDS011;61787;42.022;23.078;2024-01-11T00:14:15;22.80;;;11.32;;
20014;SDS011;61787;42.022;23.078;2024-01-11T00:15:16;19.65;;;10.25;;
20014;SDS011;61787;42.022;23.078;2024-01-11T00:16:18;20.10;;;11.35;;
20014;SDS011;61787;42.022;23.078;2024-01-11T00:17:19;18.73;;;10.63;;
20014;SDS011;61787;42.022;23.078;2024-01-11T00:18:21;17.80;;;10.45;;
20014;SDS011;61787;42.022;23.078;2024-01-11T00:19:23;17.40;;;9.98;;
20014;SDS011;61787;42.022;23.078;2024-01-11T00:20:25;18.40;;;10.40;;
20014;SDS011;61787;42.022;23.078;2024-01-11T00:21:27;19.00;;;9.85;;
20014;SDS011;61787;42.022;23.078;2024-01-11T00:22:29;13.82;;;9.77;;
20014;SDS011;61787;42.022;23.078;2024-01-11T00:23:30;17.52;;;10.13;;
20014;SDS011;61787;42.022;23.078;2024-01-11T00:24:33;21.02;;;10.77;;
20014;SDS011;61787;42.022;23.078;2024-01-11T00:25:40;15.95;;;9.38;;
20014;SDS011;61787;42.022;23.078;2024-01-11T00:26:41;17.15;;;9.98;;
20014;SDS011;61787;42.022;23.078;2024-01-11T00:27:43;20.88;;;9.75;;
20014;SDS011;61787;42.022;23.078;2024-01-11T00:28:44;19.52;;;10.32;;
20014;SDS011;61787;42.022;23.078;2024-01-11T00:29:46;17.73;;;9.98;;
20014;SDS011;61787;42.022;23.078;2024-01-11T00:30:48;17.52;;;10.48;;
20014;SDS011;61787;42.022;23.078;2024-01-11T00:31:49;17.98;;;9.77;;
20014;SDS011;61787;42.022;23.078;2024-01-11T00:32:51;22.92;;;10.52;;
20014;SDS011;61787;42.022;23.078;2024-01-11T00:33:53;16.48;;;9.30;;
20014;SDS011;61787;42.022;23.078;2024-01-11T00:34:55;16.55;;;9.65;;
20014;SDS011;61787;42.022;23.078;2024-01-11T00:35:57;17.00;;;9.68;;
20014;SDS011;61787;42.022;23.078;2024-01-11T00:36:59;16.67;;;9.90;;
20014;SDS011;61787;42.022;23.078;2024-01-11T00:38:01;16.08;;;9.43;;
20014;SDS011;61787;42.022;23.078;2024-01-11T00:39:03;16.67;;;9.38;;
20014;SDS011;61787;42.022;23.078;2024-01-11T00:40:05;16.90;;;8.77;;
20014;SDS011;61787;42.022;23.078;2024-01-11T00:41:07;14.63;;;9.02;;
20014;SDS011;61787;42.022;23.078;2024-01-11T00:42:08;13.63;;;8.70;;
20014;SDS011;61787;42.022;23.078;2024-01-11T00:43:10;12.98;;;8.75;;
20014;SDS011;61787;42.022;23.078;2024-01-11T00:44:12;14.43;;;8.07;;
20014;SDS011;61787;42.022;23.078;2024-01-11T00:45:14;19.73;;;9.20;;
20014;SDS011;61787;42.022;23.078;2024-01-11T00:46:15;13.65;;;8.93;;
20014;SDS011;61787;42.022;23.078;2024-01-11T00:47:17;14.38;;;8.45;;
20014;SDS011;61787;42.022;23.078;2024-01-11T00:48:18;13.60;;;8.60;;
20014;SDS011;61787;42.022;23.078;2024-01-11T00:49:20;14.77;;;7.93;;
20014;SDS011;61787;42.022;23.078;2024-01-11T00:50:22;14.50;;;8.80;;
20014;SDS011;61787;42.022;23.078;2024-01-11T00:51:24;16.20;;;7.63;;
20014;SDS011;61787;42.022;23.078;2024-01-11T00:52:26;13.40;;;8.30;;
20014;SDS011;61787;42.022;23.078;2024-01-11T00:53:27;13.80;;;7.68;;
20014;SDS011;61787;42.022;23.078;2024-01-11T00:54:32;15.32;;;7.72;;
20014;SDS011;61787;42.022;23.078;2024-01-11T00:55:34;14.25;;;7.78;;
20014;SDS011;61787;42.022;23.078;2024-01-11T00:56:35;16.25;;;8.45;;
20014;SDS011;61787;42.022;23.078;2024-01-11T00:57:37;14.23;;;8.02;;
20014;SDS011;61787;42.022;23.078;2024-01-11T00:58:39;16.02;;;8.20;;
20014;SDS011;61787;42.022;23.078;2024-01-11T00:59:40;14.05;;;8.45;;
20014;SDS011;61787;42.022;23.078;2024-01-11T01:00:42;15.15;;;7.22;;
20014;SDS011;61787;42.022;23.078;2024-01-11T01:01:47;14.35;;;7.00;;
20014;SDS011;61787;42.022;23.078;2024-01-11T01:02:50;13.65;;;6.15;;
20014;SDS011;61787;42.022;23.078;2024-01-11T01:03:52;9.90;;;6.15;;
20014;SDS011;61787;42.022;23.078;2024-01-11T01:04:54;12.98;;;6.70;;
20014;SDS011;61787;42.022;23.078;2024-01-11T01:05:55;12.93;;;7.03;;
20014;SDS011;61787;42.022;23.078;2024-01-11T01:06:57;13.35;;;6.88;;
20014;SDS011;61787;42.022;23.078;2024-01-11T01:07:59;11.55;;;5.97;;
20014;SDS011;61787;42.022;23.078;2024-01-11T01:09:00;13.45;;;7.22;;
20014;SDS011;61787;42.022;23.078;2024-01-11T01:10:02;13.27;;;7.70;;
20014;SDS011;61787;42.022;23.078;2024-01-11T01:11:04;12.90;;;7.30;;
20014;SDS011;61787;42.022;23.078;2024-01-11T01:12:06;15.13;;;7.72;;
20014;SDS011;61787;42.022;23.078;2024-01-11T01:13:08;13.05;;;6.45;;
20014;SDS011;61787;42.022;23.078;2024-01-11T01:14:09;13.65;;;6.28;;
20014;SDS011;61787;42.022;23.078;2024-01-11T01:15:11;11.43;;;6.88;;
20014;SDS011;61787;42.022;23.078;2024-01-11T01:16:13;16.15;;;7.05;;
20014;SDS011;61787;42.022;23.078;2024-01-11T01:17:15;12.90;;;6.50;;
20014;SDS011;61787;42.022;23.078;2024-01-11T01:18:17;12.40;;;7.43;;
20014;SDS011;61787;42.022;23.078;2024-01-11T01:19:19;10.40;;;6.72;;
20014;SDS011;61787;42.022;23.078;2024-01-11T01:20:21;11.10;;;6.35;;
20014;SDS011;61787;42.022;23.078;2024-01-11T01:21:23;16.88;;;8.85;;
20014;SDS011;61787;42.022;23.078;2024-01-11T01:22:25;13.82;;;7.75;;
20014;SDS011;61787;42.022;23.078;2024-01-11T01:23:27;11.68;;;7.10;;
20014;SDS011;61787;42.022;23.078;2024-01-11T01:24:28;15.05;;;7.70;;
20014;SDS011;61787;42.022;23.078;2024-01-11T01:25:32;13.40;;;7.30;;
20014;SDS011;61787;42.022;23.078;2024-01-11T01:26:36;14.10;;;7.40;;
20014;SDS011;61787;42.022;23.078;2024-01-11T01:27:38;15.25;;;7.40;;
20014;SDS011;61787;42.022;23.078;2024-01-11T01:28:39;14.88;;;7.00;;
20014;SDS011;61787;42.022;23.078;2024-01-11T01:29:41;13.52;;;6.90;;
20014;SDS011;61787;42.022;23.078;2024-01-11T01:30:43;10.55;;;6.75;;
20014;SDS011;61787;42.022;23.078;2024-01-11T01:31:44;14.25;;;7.20;;
20014;SDS011;61787;42.022;23.078;2024-01-11T01:32:47;9.63;;;6.28;;
20014;SDS011;61787;42.022;23.078;2024-01-11T01:33:48;11.23;;;6.63;;
20014;SDS011;61787;42.022;23.078;2024-01-11T01:34:50;14.50;;;7.15;;
20014;SDS011;61787;42.022;23.078;2024-01-11T01:35:52;11.27;;;6.90;;
20014;SDS011;61787;42.022;23.078;2024-01-11T01:36:53;11.48;;;6.65;;
20014;SDS011;61787;42.022;23.078;2024-01-11T01:37:55;12.05;;;6.43;;
20014;SDS011;61787;42.022;23.078;2024-01-11T01:38:57;10.00;;;6.60;;
20014;SDS011;61787;42.022;23.078;2024-01-11T01:39:58;9.88;;;5.93;;
20014;SDS011;61787;42.022;23.078;2024-01-11T01:41:00;12.38;;;6.38;;
20014;SDS011;61787;42.022;23.078;2024-01-11T01:42:02;10.30;;;6.07;;
20014;SDS011;61787;42.022;23.078;2024-01-11T01:43:06;11.45;;;6.07;;
20014;SDS011;61787;42.022;23.078;2024-01-11T01:44:12;10.40;;;6.05;;
20014;SDS011;61787;42.022;23.078;2024-01-11T01:45:14;10.15;;;6.25;;
20014;SDS011;61787;42.022;23.078;2024-01-11T01:46:22;10.35;;;5.50;;
20014;SDS011;61787;42.022;23.078;2024-01-11T01:47:28;17.10;;;6.45;;
20014;SDS011;61787;42.022;23.078;2024-01-11T01:48:30;12.98;;;6.15;;
20014;SDS011;61787;42.022;23.078;2024-01-11T01:49:32;8.85;;;5.68;;
20014;SDS011;61787;42.022;23.078;2024-01-11T01:50:35;11.75;;;6.05;;
20014;SDS011;61787;42.022;23.078;2024-01-11T01:51:37;8.38;;;5.40;;
20014;SDS011;61787;42.022;23.078;2024-01-11T01:52:39;12.07;;;5.95;;
20014;SDS011;61787;42.022;23.078;2024-01-11T01:53:44;11.50;;;5.80;;
20014;SDS011;61787;42.022;23.078;2024-01-11T01:54:47;9.02;;;5.95;;
20014;SDS011;61787;42.022;23.078;2024-01-11T01:55:49;11.05;;;6.68;;
20014;SDS011;61787;42.022;23.078;2024-01-11T01:56:53;12.15;;;7.32;;
20014;SDS011;61787;42.022;23.078;2024-01-11T01:57:55;14.98;;;7.68;;
20014;SDS011;61787;42.022;23.078;2024-01-11T01:58:58;14.38;;;8.93;;
20014;SDS011;61787;42.022;23.078;2024-01-11T02:00:02;17.23;;;10.05;;
20014;SDS011;61787;42.022;23.078;2024-01-11T02:01:05;16.10;;;9.45;;
20014;SDS011;61787;42.022;23.078;2024-01-11T02:02:11;16.15;;;9.85;;
20014;SDS011;61787;42.022;23.078;2024-01-11T02:03:13;14.93;;;9.23;;
20014;SDS011;61787;42.022;23.078;2024-01-11T02:04:16;14.00;;;9.55;;
20014;SDS011;61787;42.022;23.078;2024-01-11T02:05:18;16.95;;;10.55;;
20014;SDS011;61787;42.022;23.078;2024-01-11T02:06:21;17.50;;;9.85;;
20014;SDS011;61787;42.022;23.078;2024-01-11T02:07:26;16.83;;;10.80;;
20014;SDS011;61787;42.022;23.078;2024-01-11T02:08:28;16.15;;;9.88;;
20014;SDS011;61787;42.022;23.078;2024-01-11T02:09:31;16.05;;;10.93;;
20014;SDS011;61787;42.022;23.078;2024-01-11T02:10:34;16.63;;;10.23;;
20014;SDS011;61787;42.022;23.078;2024-01-11T02:11:40;16.80;;;10.05;;
20014;SDS011;61787;42.022;23.078;2024-01-11T02:12:43;15.27;;;9.98;;
20014;SDS011;61787;42.022;23.078;2024-01-11T02:13:44;15.07;;;9.38;;
20014;SDS011;61787;42.022;23.078;2024-01-11T02:14:46;16.75;;;9.00;;
20014;SDS011;61787;42.022;23.078;2024-01-11T02:15:48;16.20;;;9.70;;
20014;SDS011;61787;42.022;23.078;2024-01-11T02:16:50;18.80;;;10.07;;
20014;SDS011;61787;42.022;23.078;2024-01-11T02:17:51;19.33;;;9.95;;
20014;SDS011;61787;42.022;23.078;2024-01-11T02:18:53;18.10;;;10.55;;
20014;SDS011;61787;42.022;23.078;2024-01-11T02:19:55;18.65;;;10.60;;
20014;SDS011;61787;42.022;23.078;2024-01-11T02:20:57;19.40;;;10.15;;
20014;SDS011;61787;42.022;23.078;2024-01-11T02:21:59;19.90;;;10.88;;
20014;SDS011;61787;42.022;23.078;2024-01-11T02:23:05;19.67;;;10.60;;
20014;SDS011;61787;42.022;23.078;2024-01-11T02:24:09;17.45;;;10.75;;
20014;SDS011;61787;42.022;23.078;2024-01-11T02:25:11;18.98;;;11.65;;
20014;SDS011;61787;42.022;23.078;2024-01-11T02:26:15;19.23;;;11.27;;
20014;SDS011;61787;42.022;23.078;2024-01-11T02:27:17;22.17;;;11.52;;
20014;SDS011;61787;42.022;23.078;2024-01-11T02:28:19;18.35;;;10.25;;
20014;SDS011;61787;42.022;23.078;2024-01-11T02:29:21;17.50;;;10.35;;
20014;SDS011;61787;42.022;23.078;2024-01-11T02:30:22;19.92;;;10.75;;
20014;SDS011;61787;42.022;23.078;2024-01-11T02:31:24;19.13;;;9.88;;
20014;SDS011;61787;42.022;23.078;2024-01-11T02:32:26;19.17;;;11.27;;
20014;SDS011;61787;42.022;23.078;2024-01-11T02:33:28;20.83;;;11.63;;
20014;SDS011;61787;42.022;23.078;2024-01-11T02:34:30;19.50;;;11.15;;
20014;SDS011;61787;42.022;23.078;2024-01-11T02:35:32;20.85;;;11.38;;
20014;SDS011;61787;42.022;23.078;2024-01-11T02:36:35;18.25;;;10.95;;
20014;SDS011;61787;42.022;23.078;2024-01-11T02:37:37;21.20;;;11.40;;
20014;SDS011;61787;42.022;23.078;2024-01-11T02:38:40;18.65;;;11.15;;
20014;SDS011;61787;42.022;23.078;2024-01-11T02:39:43;20.05;;;11.48;;
20014;SDS011;61787;42.022;23.078;2024-01-11T02:40:44;17.75;;;10.60;;
20014;SDS011;61787;42.022;23.078;2024-01-11T02:41:47;22.38;;;11.23;;
20014;SDS011;61787;42.022;23.078;2024-01-11T02:42:51;18.05;;;10.38;;
20014;SDS011;61787;42.022;23.078;2024-01-11T02:43:53;16.50;;;10.43;;
20014;SDS011;61787;42.022;23.078;2024-01-11T02:44:55;22.40;;;11.45;;
20014;SDS011;61787;42.022;23.078;2024-01-11T02:45:57;19.40;;;10.80;;
20014;SDS011;61787;42.022;23.078;2024-01-11T02:47:00;21.00;;;11.95;;
20014;SDS011;61787;42.022;23.078;2024-01-11T02:48:02;19.30;;;11.88;;
20014;SDS011;61787;42.022;23.078;2024-01-11T02:49:04;21.70;;;11.95;;
20014;SDS011;61787;42.022;23.078;2024-01-11T02:50:06;24.52;;;13.15;;
20014;SDS011;61787;42.022;23.078;2024-01-11T02:51:13;25.02;;;14.13;;
20014;SDS011;61787;42.022;23.078;2024-01-11T02:52:15;28.13;;;15.15;;
20014;SDS011;61787;42.022;23.078;2024-01-11T02:53:16;24.23;;;14.10;;
20014;SDS011;61787;42.022;23.078;2024-01-11T02:54:18;23.35;;;13.75;;
20014;SDS011;61787;42.022;23.078;2024-01-11T02:55:20;25.65;;;14.35;;
20014;SDS011;61787;42.022;23.078;2024-01-11T02:56:21;21.48;;;12.65;;
20014;SDS011;61787;42.022;23.078;2024-01-11T02:57:23;22.40;;;12.65;;
20014;SDS011;61787;42.022;23.078;2024-01-11T02:58:25;23.15;;;13.20;;
20014;SDS011;61787;42.022;23.078;2024-01-11T02:59:26;22.00;;;11.65;;
20014;SDS011;61787;42.022;23.078;2024-01-11T03:00:28;22.02;;;12.63;;
20014;SDS011;61787;42.022;23.078;2024-01-11T03:01:30;22.95;;;12.82;;
20014;SDS011;61787;42.022;23.078;2024-01-11T03:02:31;22.02;;;12.57;;
20014;SDS011;61787;42.022;23.078;2024-01-11T03:03:33;23.23;;;12.95;;
20014;SDS011;61787;42.022;23.078;2024-01-11T03:04:35;22.85;;;12.75;;
20014;SDS011;61787;42.022;23.078;2024-01-11T03:05:36;20.70;;;11.60;;
20014;SDS011;61787;42.022;23.078;2024-01-11T03:06:38;21.30;;;12.73;;
20014;SDS011;61787;42.022;23.078;2024-01-11T03:07:40;20.95;;;11.82;;
20014;SDS011;61787;42.022;23.078;2024-01-11T03:08:41;21.10;;;11.65;;
20014;SDS011;61787;42.022;23.078;2024-01-11T03:09:43;17.85;;;11.05;;
20014;SDS011;61787;42.022;23.078;2024-01-11T03:10:45;22.10;;;12.27;;
20014;SDS011;61787;42.022;23.078;2024-01-11T03:11:46;19.38;;;11.15;;
20014;SDS011;61787;42.022;23.078;2024-01-11T03:12:48;23.60;;;11.65;;
20014;SDS011;61787;42.022;23.078;2024-01-11T03:13:50;20.27;;;11.98;;
20014;SDS011;61787;42.022;23.078;2024-01-11T03:14:52;24.20;;;12.80;;
20014;SDS011;61787;42.022;23.078;2024-01-11T03:15:53;25.38;;;12.32;;
20014;SDS011;61787;42.022;23.078;2024-01-11T03:16:55;19.67;;;12.63;;
20014;SDS011;61787;42.022;23.078;2024-01-11T03:17:57;23.38;;;11.80;;
20014;SDS011;61787;42.022;23.078;2024-01-11T03:18:59;24.92;;;12.20;;
20014;SDS011;61787;42.022;23.078;2024-01-11T03:20:01;20.98;;;12.75;;
20014;SDS011;61787;42.022;23.078;2024-01-11T03:21:04;18.35;;;12.27;;
20014;SDS011;61787;42.022;23.078;2024-01-11T03:22:06;19.60;;;12.93;;
20014;SDS011;61787;42.022;23.078;2024-01-11T03:23:08;22.00;;;12.52;;
20014;SDS011;61787;42.022;23.078;2024-01-11T03:24:10;24.98;;;13.27;;
20014;SDS011;61787;42.022;23.078;2024-01-11T03:25:11;21.33;;;13.07;;
20014;SDS011;61787;42.022;23.078;2024-01-11T03:26:14;22.77;;;12.30;;
20014;SDS011;61787;42.022;23.078;2024-01-11T03:27:17;21.63;;;13.00;;
20014;SDS011;61787;42.022;23.078;2024-01-11T03:28:19;19.83;;;11.15;;
20014;SDS011;61787;42.022;23.078;2024-01-11T03:29:21;19.52;;;12.60;;
20014;SDS011;61787;42.022;23.078;2024-01-11T03:30:22;19.20;;;11.43;;
20014;SDS011;61787;42.022;23.078;2024-01-11T03:31:24;19.30;;;11.23;;
20014;SDS011;61787;42.022;23.078;2024-01-11T03:32:26;22.15;;;12.25;;
20014;SDS011;61787;42.022;23.078;2024-01-11T03:33:27;19.08;;;11.40;;
20014;SDS011;61787;42.022;23.078;2024-01-11T03:34:29;18.95;;;11.45;;
20014;SDS011;61787;42.022;23.078;2024-01-11T03:35:31;20.05;;;11.65;;
20014;SDS011;61787;42.022;23.078;2024-01-11T03:36:32;21.13;;;11.30;;
20014;SDS011;61787;42.022;23.078;2024-01-11T03:37:34;20.42;;;12.40;;
20014;SDS011;61787;42.022;23.078;2024-01-11T03:38:36;20.55;;;12.68;;
20014;SDS011;61787;42.022;23.078;2024-01-11T03:39:39;25.98;;;13.40;;
20014;SDS011;61787;42.022;23.078;2024-01-11T03:40:40;20.92;;;11.93;;
20014;SDS011;61787;42.022;23.078;2024-01-11T03:41:45;18.92;;;11.15;;
20014;SDS011;61787;42.022;23.078;2024-01-11T03:42:47;18.00;;;10.68;;
20014;SDS011;61787;42.022;23.078;2024-01-11T03:43:49;19.20;;;11.82;;
20014;SDS011;61787;42.022;23.078;2024-01-11T03:44:51;18.30;;;12.05;;
20014;SDS011;61787;42.022;23.078;2024-01-11T03:45:53;17.70;;;10.30;;
20014;SDS011;61787;42.022;23.078;2024-01-11T03:46:54;20.75;;;11.40;;
20014;SDS011;61787;42.022;23.078;2024-01-11T03:47:56;19.88;;;11.38;;
20014;SDS011;61787;42.022;23.078;2024-01-11T03:48:58;24.50;;;13.18;;
20014;SDS011;61787;42.022;23.078;2024-01-11T03:50:01;19.27;;;12.95;;
20014;SDS011;61787;42.022;23.078;2024-01-11T03:51:03;22.10;;;12.35;;
20014;SDS011;61787;42.022;23.078;2024-01-11T03:52:05;20.67;;;12.18;;
20014;SDS011;61787;42.022;23.078;2024-01-11T03:53:07;18.90;;;12.05;;
20014;SDS011;61787;42.022;23.078;2024-01-11T03:54:09;20.27;;;12.10;;
20014;SDS011;61787;42.022;23.078;2024-01-11T03:55:11;18.63;;;11.82;;
20014;SDS011;61787;42.022;23.078;2024-01-11T03:56:13;20.05;;;12.27;;
20014;SDS011;61787;42.022;23.078;2024-01-11T03:57:15;20.23;;;12.75;;
20014;SDS011;61787;42.022;23.078;2024-01-11T03:58:16;19.95;;;12.93;;
20014;SDS011;61787;42.022;23.078;2024-01-11T03:59:18;26.35;;;14.65;;
20014;SDS011;61787;42.022;23.078;2024-01-11T04:00:19;21.38;;;13.63;;
20014;SDS011;61787;42.022;23.078;2024-01-11T04:01:21;22.10;;;12.85;;
20014;SDS011;61787;42.022;23.078;2024-01-11T04:02:23;21.92;;;12.85;;
20014;SDS011;61787;42.022;23.078;2024-01-11T04:03:24;18.42;;;11.70;;
20014;SDS011;61787;42.022;23.078;2024-01-11T04:04:26;22.35;;;12.65;;
20014;SDS011;61787;42.022;23.078;2024-01-11T04:05:28;17.73;;;10.80;;
20014;SDS011;61787;42.022;23.078;2024-01-11T04:06:29;16.17;;;9.88;;
20014;SDS011;61787;42.022;23.078;2024-01-11T04:07:31;19.30;;;10.70;;
20014;SDS011;61787;42.022;23.078;2024-01-11T04:08:33;14.32;;;9.52;;
20014;SDS011;61787;42.022;23.078;2024-01-11T04:09:36;16.15;;;9.90;;
20014;SDS011;61787;42.022;23.078;2024-01-11T04:10:39;17.25;;;10.07;;
20014;SDS011;61787;42.022;23.078;2024-01-11T04:11:41;19.42;;;9.75;;
20014;SDS011;61787;42.022;23.078;2024-01-11T04:12:42;16.02;;;8.10;;
20014;SDS011;61787;42.022;23.078;2024-01-11T04:13:44;14.35;;;7.95;;
20014;SDS011;61787;42.022;23.078;2024-01-11T04:14:46;15.80;;;8.73;;
20014;SDS011;61787;42.022;23.078;2024-01-11T04:15:47;14.20;;;8.77;;
20014;SDS011;61787;42.022;23.078;2024-01-11T04:16:49;16.75;;;8.48;;
20014;SDS011;61787;42.022;23.078;2024-01-11T04:17:51;100.85;;;13.02;;
20014;SDS011;61787;42.022;23.078;2024-01-11T04:18:53;14.68;;;8.23;;
20014;SDS011;61787;42.022;23.078;2024-01-11T04:19:54;17.50;;;8.85;;
20014;SDS011;61787;42.022;23.078;2024-01-11T04:20:56;15.32;;;8.32;;
20014;SDS011;61787;42.022;23.078;2024-01-11T04:21:58;12.50;;;7.82;;
20014;SDS011;61787;42.022;23.078;2024-01-11T04:22:59;13.00;;;8.65;;
20014;SDS011;61787;42.022;23.078;2024-01-11T04:24:01;17.02;;;8.82;;
20014;SDS011;61787;42.022;23.078;2024-01-11T04:25:03;14.73;;;8.23;;
20014;SDS011;61787;42.022;23.078;2024-01-11T04:26:05;16.20;;;9.63;;
20014;SDS011;61787;42.022;23.078;2024-01-11T04:27:07;14.85;;;9.40;;
20014;SDS011;61787;42.022;23.078;2024-01-11T04:28:08;16.80;;;10.40;;
20014;SDS011;61787;42.022;23.078;2024-01-11T04:29:11;17.08;;;10.27;;
20014;SDS011;61787;42.022;23.078;2024-01-11T04:30:12;15.98;;;9.18;;
20014;SDS011;61787;42.022;23.078;2024-01-11T04:31:15;19.98;;;10.25;;
20014;SDS011;61787;42.022;23.078;2024-01-11T04:32:18;19.65;;;11.35;;
20014;SDS011;61787;42.022;23.078;2024-01-11T04:33:20;18.30;;;10.18;;
20014;SDS011;61787;42.022;23.078;2024-01-11T04:34:22;18.13;;;10.15;;
20014;SDS011;61787;42.022;23.078;2024-01-11T04:35:23;18.75;;;10.30;;
20014;SDS011;61787;42.022;23.078;2024-01-11T04:36:25;20.17;;;11.63;;
20014;SDS011;61787;42.022;23.078;2024-01-11T04:37:27;23.63;;;10.98;;
20014;SDS011;61787;42.022;23.078;2024-01-11T04:38:28;23.45;;;12.43;;
20014;SDS011;61787;42.022;23.078;2024-01-11T04:39:30;20.83;;;12.52;;
20014;SDS011;61787;42.022;23.078;2024-01-11T04:40:32;22.17;;;12.55;;
20014;SDS011;61787;42.022;23.078;2024-01-11T04:41:35;20.90;;;11.93;;
20014;SDS011;61787;42.022;23.078;2024-01-11T04:42:38;19.58;;;11.38;;
20014;SDS011;61787;42.022;23.078;2024-01-11T04:43:44;28.60;;;12.43;;
20014;SDS011;61787;42.022;23.078;2024-01-11T04:44:46;21.13;;;12.63;;
20014;SDS011;61787;42.022;23.078;2024-01-11T04:45:48;21.88;;;11.63;;
20014;SDS011;61787;42.022;23.078;2024-01-11T04:46:50;20.17;;;12.05;;
20014;SDS011;61787;42.022;23.078;2024-01-11T04:47:51;19.70;;;10.95;;
20014;SDS011;61787;42.022;23.078;2024-01-11T04:48:53;19.75;;;11.02;;
20014;SDS011;61787;42.022;23.078;2024-01-11T04:49:55;21.10;;;11.98;;
20014;SDS011;61787;42.022;23.078;2024-01-11T04:50:57;20.17;;;12.25;;
20014;SDS011;61787;42.022;23.078;2024-01-11T04:51:59;20.98;;;11.50;;
20014;SDS011;61787;42.022;23.078;2024-01-11T04:53:00;26.50;;;13.43;;
20014;SDS011;61787;42.022;23.078;2024-01-11T04:54:02;20.92;;;11.57;;
20014;SDS011;61787;42.022;23.078;2024-01-11T04:55:04;20.48;;;11.57;;
20014;SDS011;61787;42.022;23.078;2024-01-11T04:56:06;19.55;;;10.48;;
20014;SDS011;61787;42.022;23.078;2024-01-11T04:57:09;19.75;;;11.23;;
20014;SDS011;61787;42.022;23.078;2024-01-11T04:58:11;21.67;;;11.68;;
20014;SDS011;61787;42.022;23.078;2024-01-11T04:59:12;23.67;;;12.27;;
20014;SDS011;61787;42.022;23.078;2024-01-11T05:00:14;20.33;;;10.50;;
20014;SDS011;61787;42.022;23.078;2024-01-11T05:01:16;17.20;;;11.13;;
20014;SDS011;61787;42.022;23.078;2024-01-11T05:02:22;19.42;;;10.52;;
20014;SDS011;61787;42.022;23.078;2024-01-11T05:03:24;17.08;;;10.95;;
20014;SDS011;61787;42.022;23.078;2024-01-11T05:04:25;19.88;;;10.55;;
20014;SDS011;61787;42.022;23.078;2024-01-11T05:05:27;19.90;;;11.02;;
20014;SDS011;61787;42.022;23.078;2024-01-11T05:06:29;22.02;;;11.20;;
20014;SDS011;61787;42.022;23.078;2024-01-11T05:07:31;23.67;;;11.23;;
20014;SDS011;61787;42.022;23.078;2024-01-11T05:08:33;20.02;;;11.30;;
20014;SDS011;61787;42.022;23.078;2024-01-11T05:09:35;20.48;;;11.00;;
20014;SDS011;61787;42.022;23.078;2024-01-11T05:10:36;23.23;;;11.57;;
20014;SDS011;61787;42.022;23.078;2024-01-11T05:11:38;22.65;;;11.05;;
20014;SDS011;61787;42.022;23.078;2024-01-11T05:12:40;19.20;;;11.70;;
20014;SDS011;61787;42.022;23.078;2024-01-11T05:13:42;23.70;;;12.07;;
20014;SDS011;61787;42.022;23.078;2024-01-11T05:14:44;27.25;;;13.25;;
20014;SDS011;61787;42.022;23.078;2024-01-11T05:15:46;20.65;;;11.93;;
20014;SDS011;61787;42.022;23.078;2024-01-11T05:16:48;20.27;;;11.75;;
20014;SDS011;61787;42.022;23.078;2024-01-11T05:17:50;21.25;;;12.18;;
20014;SDS011;61787;42.022;23.078;2024-01-11T05:18:53;20.95;;;12.05;;
20014;SDS011;61787;42.022;23.078;2024-01-11T05:19:57;22.23;;;11.68;;
20014;SDS011;61787;42.022;23.078;2024-01-11T05:20:59;23.58;;;12.88;;
20014;SDS011;61787;42.022;23.078;2024-01-11T05:22:02;21.42;;;12.77;;
20014;SDS011;61787;42.022;23.078;2024-01-11T05:23:04;21.25;;;13.40;;
20014;SDS011;61787;42.022;23.078;2024-01-11T05:24:05;22.23;;;13.20;;
20014;SDS011;61787;42.022;23.078;2024-01-11T05:25:11;21.90;;;13.25;;
20014;SDS011;61787;42.022;23.078;2024-01-11T05:26:13;26.85;;;15.48;;
20014;SDS011;61787;42.022;23.078;2024-01-11T05:27:16;25.30;;;15.27;;
20014;SDS011;61787;42.022;23.078;2024-01-11T05:28:18;30.33;;;16.08;;
20014;SDS011;61787;42.022;23.078;2024-01-11T05:29:19;32.75;;;16.02;;
20014;SDS011;61787;42.022;23.078;2024-01-11T05:30:21;49.90;;;20.40;;
20014;SDS011;61787;42.022;23.078;2024-01-11T05:31:24;58.00;;;26.55;;
20014;SDS011;61787;42.022;23.078;2024-01-11T05:32:27;46.00;;;22.73;;
20014;SDS011;61787;42.022;23.078;2024-01-11T05:33:29;38.28;;;19.15;;
20014;SDS011;61787;42.022;23.078;2024-01-11T05:34:32;28.30;;;15.07;;
20014;SDS011;61787;42.022;23.078;2024-01-11T05:35:34;32.95;;;17.73;;
20014;SDS011;61787;42.022;23.078;2024-01-11T05:36:36;29.33;;;17.52;;
20014;SDS011;61787;42.022;23.078;2024-01-11T05:37:37;34.38;;;19.23;;
20014;SDS011;61787;42.022;23.078;2024-01-11T05:38:39;31.30;;;17.50;;
20014;SDS011;61787;42.022;23.078;2024-01-11T05:39:44;30.67;;;17.58;;
20014;SDS011;61787;42.022;23.078;2024-01-11T05:40:46;34.72;;;17.10;;
20014;SDS011;61787;42.022;23.078;2024-01-11T05:41:48;28.05;;;15.63;;
20014;SDS011;61787;42.022;23.078;2024-01-11T05:42:49;31.17;;;16.33;;
20014;SDS011;61787;42.022;23.078;2024-01-11T05:43:51;33.08;;;16.63;;
20014;SDS011;61787;42.022;23.078;2024-01-11T05:44:52;28.83;;;16.70;;
20014;SDS011;61787;42.022;23.078;2024-01-11T05:45:54;29.02;;;14.88;;
20014;SDS011;61787;42.022;23.078;2024-01-11T05:46:56;22.52;;;13.25;;
20014;SDS011;61787;42.022;23.078;2024-01-11T05:47:58;23.95;;;13.00;;
20014;SDS011;61787;42.022;23.078;2024-01-11T05:48:59;21.27;;;13.20;;
20014;SDS011;61787;42.022;23.078;2024-01-11T05:50:01;21.77;;;12.75;;
20014;SDS011;61787;42.022;23.078;2024-01-11T05:51:03;23.70;;;13.68;;
20014;SDS011;61787;42.022;23.078;2024-01-11T05:52:04;21.45;;;11.32;;
20014;SDS011;61787;42.022;23.078;2024-01-11T05:53:06;21.38;;;11.95;;
20014;SDS011;61787;42.022;23.078;2024-01-11T05:54:08;24.02;;;13.23;;
20014;SDS011;61787;42.022;23.078;2024-01-11T05:55:09;22.02;;;12.55;;
20014;SDS011;61787;42.022;23.078;2024-01-11T05:56:11;21.45;;;12.65;;
20014;SDS011;61787;42.022;23.078;2024-01-11T05:57:13;20.85;;;12.90;;
20014;SDS011;61787;42.022;23.078;2024-01-11T05:58:14;19.50;;;11.68;;
20014;SDS011;61787;42.022;23.078;2024-01-11T05:59:16;22.73;;;13.50;;
20014;SDS011;61787;42.022;23.078;2024-01-11T06:00:18;23.30;;;13.45;;